Time,TemperatureF,DewpointF,PressureIn,WindDirection,WindDirectionDegrees,WindSpeedMPH,WindSpeedGustMPH,Humidity,HourlyPrecipIn,Conditions,Clouds,dailyrainin,SolarRadiationWatts/m^2,SoftwareType,DateUTC
2013-08-12 00:22:00,46.0,33.0,-100.00,East,88,7.0,9.0,61,0.00,,,0.00,0.000000,,2013-08-12 06:22:00,
2013-08-12 00:32:00,46.0,33.0,-100.00,East,88,7.0,9.0,61,0.00,,,0.00,0.000000,,2013-08-12 06:32:00,
2013-08-12 00:42:00,46.0,33.0,-100.00,East,88,7.0,9.0,61,0.00,,,0.00,0.000000,,2013-08-12 06:42:00,
2013-08-12 00:52:00,46.0,33.0,-100.00,East,88,7.0,9.0,61,0.00,,,0.00,0.000000,,2013-08-12 06:52:00,
2013-08-12 01:22:00,46.0,34.0,-100.00,East,79,6.0,10.0,62,0.00,,,0.00,0.000000,,2013-08-12 07:22:00,
2013-08-12 01:33:00,46.0,34.0,-100.00,East,79,6.0,10.0,62,0.00,,,0.00,0.000000,,2013-08-12 07:33:00,
2013-08-12 01:43:00,46.0,34.0,-100.00,East,79,6.0,10.0,62,0.00,,,0.00,0.000000,,2013-08-12 07:43:00,
2013-08-12 01:52:00,46.0,34.0,-100.00,East,79,6.0,10.0,62,0.00,,,0.00,0.000000,,2013-08-12 07:52:00,
2013-08-12 02:22:00,47.0,33.0,-100.00,ENE,74,8.0,14.0,57,0.00,,,0.00,0.000000,,2013-08-12 08:22:00,
2013-08-12 02:33:00,47.0,33.0,-100.00,ENE,74,8.0,14.0,57,0.00,,,0.00,0.000000,,2013-08-12 08:33:00,
2013-08-12 02:43:00,47.0,33.0,-100.00,ENE,74,8.0,14.0,57,0.00,,,0.00,0.000000,,2013-08-12 08:43:00,
2013-08-12 02:53:00,47.0,33.0,-100.00,ENE,74,8.0,14.0,57,0.00,,,0.00,0.000000,,2013-08-12 08:53:00,
2013-08-12 03:22:00,47.0,33.0,-100.00,ENE,77,8.0,15.0,59,0.00,,,0.00,0.000000,,2013-08-12 09:22:00,
2013-08-12 03:32:00,47.0,33.0,-100.00,ENE,77,8.0,15.0,59,0.00,,,0.00,0.000000,,2013-08-12 09:32:00,
2013-08-12 03:43:00,47.0,33.0,-100.00,ENE,77,8.0,15.0,59,0.00,,,0.00,0.000000,,2013-08-12 09:43:00,
2013-08-12 03:52:00,47.0,33.0,-100.00,ENE,77,8.0,15.0,59,0.00,,,0.00,0.000000,,2013-08-12 09:52:00,
2013-08-12 04:22:00,46.0,33.0,-100.00,ENE,75,7.0,13.0,61,0.00,,,0.00,0.000000,,2013-08-12 10:22:00,
2013-08-12 04:32:00,46.0,33.0,-100.00,ENE,75,7.0,13.0,61,0.00,,,0.00,0.000000,,2013-08-12 10:32:00,
2013-08-12 04:43:00,46.0,33.0,-100.00,ENE,75,7.0,13.0,61,0.00,,,0.00,0.000000,,2013-08-12 10:43:00,
2013-08-12 04:52:00,46.0,33.0,-100.00,ENE,75,7.0,13.0,61,0.00,,,0.00,0.000000,,2013-08-12 10:52:00,
2013-08-12 05:22:00,45.0,34.0,-100.00,East,81,6.0,12.0,65,0.00,,,0.00,0.000000,,2013-08-12 11:22:00,
2013-08-12 05:32:00,45.0,34.0,-100.00,East,81,6.0,12.0,65,0.00,,,0.00,0.000000,,2013-08-12 11:32:00,
2013-08-12 05:42:00,45.0,34.0,-100.00,East,81,6.0,12.0,65,0.00,,,0.00,0.000000,,2013-08-12 11:42:00,
2013-08-12 05:52:00,45.0,34.0,-100.00,East,81,6.0,12.0,65,0.00,,,0.00,0.000000,,2013-08-12 11:52:00,
2013-08-12 06:22:00,43.0,35.0,-100.00,ENE,78,7.0,11.0,73,0.00,,,-99.99,0.000000,,2013-08-12 12:22:00,
2013-08-12 06:32:00,43.0,35.0,-100.00,ENE,78,7.0,11.0,73,0.00,,,-99.99,0.000000,,2013-08-12 12:32:00,
2013-08-12 06:43:00,43.0,35.0,-100.00,ENE,78,7.0,11.0,73,0.00,,,-99.99,0.000000,,2013-08-12 12:43:00,
2013-08-12 06:52:00,43.0,35.0,-100.00,ENE,78,7.0,11.0,73,0.00,,,-99.99,0.000000,,2013-08-12 12:52:00,
2013-08-12 07:22:00,45.0,35.0,-100.00,ENE,71,8.0,12.0,69,0.00,,,0.00,10.000000,,2013-08-12 13:22:00,
2013-08-12 07:32:00,45.0,35.0,-100.00,ENE,71,8.0,12.0,69,0.00,,,0.00,10.000000,,2013-08-12 13:32:00,
2013-08-12 07:43:00,45.0,35.0,-100.00,ENE,71,8.0,12.0,69,0.00,,,0.00,10.000000,,2013-08-12 13:43:00,
2013-08-12 07:53:00,45.0,35.0,-100.00,ENE,71,8.0,12.0,69,0.00,,,0.00,10.000000,,2013-08-12 13:53:00,
2013-08-12 08:52:00,52.0,38.0,-100.00,East,86,8.0,12.0,58,0.00,,,0.00,162.000000,,2013-08-12 14:52:00,
2013-08-12 09:22:00,59.0,38.0,-100.00,East,96,5.0,10.0,46,0.00,,,0.00,373.000000,,2013-08-12 15:22:00,
2013-08-12 09:33:00,59.0,38.0,-100.00,East,96,5.0,10.0,46,0.00,,,0.00,373.000000,,2013-08-12 15:33:00,
2013-08-12 09:43:00,59.0,38.0,-100.00,East,96,5.0,10.0,46,0.00,,,0.00,373.000000,,2013-08-12 15:43:00,
2013-08-12 09:52:00,59.0,38.0,-100.00,East,96,5.0,10.0,46,0.00,,,0.00,373.000000,,2013-08-12 15:52:00,
2013-08-12 10:22:00,61.0,40.0,-100.00,WSW,251,5.0,6.0,46,0.00,,,0.00,546.000000,,2013-08-12 16:22:00,
2013-08-12 10:33:00,61.0,40.0,-100.00,WSW,251,5.0,6.0,46,0.00,,,0.00,546.000000,,2013-08-12 16:33:00,
2013-08-12 10:42:00,61.0,40.0,-100.00,WSW,251,5.0,6.0,46,0.00,,,0.00,546.000000,,2013-08-12 16:42:00,
2013-08-12 10:52:00,61.0,40.0,-100.00,WSW,251,5.0,6.0,46,0.00,,,0.00,546.000000,,2013-08-12 16:52:00,
2013-08-12 11:22:00,63.0,40.0,-100.00,West,263,6.0,9.0,42,0.00,,,0.00,561.000000,,2013-08-12 17:22:00,
2013-08-12 11:32:00,63.0,40.0,-100.00,West,263,6.0,9.0,42,0.00,,,0.00,561.000000,,2013-08-12 17:32:00,
2013-08-12 11:43:00,63.0,40.0,-100.00,West,263,6.0,9.0,42,0.00,,,0.00,561.000000,,2013-08-12 17:43:00,
2013-08-12 11:52:00,63.0,40.0,-100.00,West,263,6.0,9.0,42,0.00,,,0.00,561.000000,,2013-08-12 17:52:00,
2013-08-12 12:24:00,66.0,31.0,-100.00,West,263,8.0,12.0,27,0.00,,,0.00,597.000000,,2013-08-12 18:24:00,
2013-08-12 12:32:00,66.0,31.0,-100.00,West,263,8.0,12.0,27,0.00,,,0.00,597.000000,,2013-08-12 18:32:00,
2013-08-12 12:43:00,66.0,31.0,-100.00,West,263,8.0,12.0,27,0.00,,,0.00,597.000000,,2013-08-12 18:43:00,
2013-08-12 12:52:00,66.0,31.0,-100.00,West,263,8.0,12.0,27,0.00,,,0.00,597.000000,,2013-08-12 18:52:00,
2013-08-12 13:22:00,70.0,23.0,-100.00,WSW,246,6.0,12.0,17,0.00,,,0.00,618.000000,,2013-08-12 19:22:00,
2013-08-12 13:33:00,70.0,23.0,-100.00,WSW,246,6.0,12.0,17,0.00,,,0.00,618.000000,,2013-08-12 19:33:00,
2013-08-12 13:43:00,70.0,23.0,-100.00,WSW,246,6.0,12.0,17,0.00,,,0.00,618.000000,,2013-08-12 19:43:00,
2013-08-12 13:52:00,70.0,23.0,-100.00,WSW,246,6.0,12.0,17,0.00,,,0.00,618.000000,,2013-08-12 19:52:00,
2013-08-12 14:22:00,69.0,29.0,-100.00,WSW,248,10.0,17.0,22,0.00,,,0.00,687.000000,,2013-08-12 20:22:00,
2013-08-12 14:32:00,69.0,29.0,-100.00,WSW,248,10.0,17.0,22,0.00,,,0.00,687.000000,,2013-08-12 20:32:00,
2013-08-12 14:42:00,69.0,29.0,-100.00,WSW,248,10.0,17.0,22,0.00,,,0.00,687.000000,,2013-08-12 20:42:00,
2013-08-12 14:52:00,69.0,29.0,-100.00,WSW,248,10.0,17.0,22,0.00,,,0.00,687.000000,,2013-08-12 20:52:00,
2013-08-12 15:22:00,65.0,36.0,-100.00,ESE,106,8.0,19.0,34,0.00,,,0.00,435.000000,,2013-08-12 21:22:00,
2013-08-12 15:32:00,65.0,36.0,-100.00,ESE,106,8.0,19.0,34,0.00,,,0.00,435.000000,,2013-08-12 21:32:00,
2013-08-12 15:43:00,65.0,36.0,-100.00,ESE,106,8.0,19.0,34,0.00,,,0.00,435.000000,,2013-08-12 21:43:00,
2013-08-12 15:52:00,65.0,36.0,-100.00,ESE,106,8.0,19.0,34,0.00,,,0.00,435.000000,,2013-08-12 21:52:00,
2013-08-12 16:22:00,67.0,35.0,-100.00,SSE,159,4.0,17.0,30,0.00,,,0.00,808.000000,,2013-08-12 22:22:00,
2013-08-12 16:32:00,67.0,35.0,-100.00,SSE,159,4.0,17.0,30,0.00,,,0.00,808.000000,,2013-08-12 22:32:00,
2013-08-12 16:43:00,67.0,35.0,-100.00,SSE,159,4.0,17.0,30,0.00,,,0.00,808.000000,,2013-08-12 22:43:00,
2013-08-12 16:53:00,67.0,35.0,-100.00,SSE,159,4.0,17.0,30,0.00,,,0.00,808.000000,,2013-08-12 22:53:00,
2013-08-12 17:22:00,67.0,34.0,-100.00,East,100,3.0,9.0,29,0.00,,,0.00,401.000000,,2013-08-12 23:22:00,
2013-08-12 17:34:00,67.0,34.0,-100.00,East,100,3.0,9.0,29,0.00,,,0.00,401.000000,,2013-08-12 23:34:00,
2013-08-12 17:43:00,67.0,34.0,-100.00,East,100,3.0,9.0,29,0.00,,,0.00,401.000000,,2013-08-12 23:43:00,
2013-08-12 17:53:00,67.0,34.0,-100.00,East,100,3.0,9.0,29,0.00,,,0.00,401.000000,,2013-08-12 23:53:00,
2013-08-12 18:24:00,65.0,31.0,-100.00,WSW,246,4.0,8.0,28,0.00,,,0.00,194.000000,,2013-08-13 00:24:00,
2013-08-12 18:35:00,65.0,31.0,-100.00,WSW,246,4.0,8.0,28,0.00,,,0.00,194.000000,,2013-08-13 00:35:00,
2013-08-12 18:45:00,65.0,31.0,-100.00,WSW,246,4.0,8.0,28,0.00,,,0.00,194.000000,,2013-08-13 00:45:00,
2013-08-12 18:53:00,65.0,31.0,-100.00,WSW,246,4.0,8.0,28,0.00,,,0.00,194.000000,,2013-08-13 00:53:00,
2013-08-12 19:23:00,58.0,36.0,-100.00,West,274,8.0,27.0,44,0.00,,,0.00,45.000000,,2013-08-13 01:23:00,
2013-08-12 19:33:00,58.0,36.0,-100.00,West,274,8.0,27.0,44,0.00,,,0.00,45.000000,,2013-08-13 01:33:00,
2013-08-12 19:42:00,58.0,36.0,-100.00,West,274,8.0,27.0,44,0.00,,,0.00,45.000000,,2013-08-13 01:42:00,
2013-08-12 19:55:00,58.0,36.0,-100.00,West,274,8.0,27.0,44,0.00,,,0.00,45.000000,,2013-08-13 01:55:00,
2013-08-12 20:22:00,52.0,40.0,-100.00,ENE,67,6.0,20.0,64,0.01,,,0.01,44.000000,,2013-08-13 02:22:00,
2013-08-12 20:32:00,52.0,40.0,-100.00,ENE,67,6.0,20.0,64,0.01,,,0.01,44.000000,,2013-08-13 02:32:00,
2013-08-12 20:43:00,52.0,40.0,-100.00,ENE,67,6.0,20.0,64,0.01,,,0.01,44.000000,,2013-08-13 02:43:00,
2013-08-12 20:52:00,52.0,40.0,-100.00,ENE,67,6.0,20.0,64,0.01,,,0.01,44.000000,,2013-08-13 02:52:00,
2013-08-12 21:22:00,51.0,40.0,-100.00,ENE,67,9.0,12.0,67,0.00,,,0.01,1.000000,,2013-08-13 03:22:00,
2013-08-12 21:33:00,51.0,40.0,-100.00,ENE,67,9.0,12.0,67,0.00,,,0.01,1.000000,,2013-08-13 03:33:00,
2013-08-12 21:43:00,51.0,40.0,-100.00,ENE,67,9.0,12.0,67,0.00,,,0.01,1.000000,,2013-08-13 03:43:00,
2013-08-12 21:54:00,51.0,40.0,-100.00,ENE,67,9.0,12.0,67,0.00,,,0.01,1.000000,,2013-08-13 03:54:00,
2013-08-12 22:23:00,51.0,40.0,-100.00,ENE,70,6.0,12.0,67,0.00,,,0.01,0.000000,,2013-08-13 04:23:00,
2013-08-12 22:33:00,51.0,40.0,-100.00,ENE,70,6.0,12.0,67,0.00,,,0.01,0.000000,,2013-08-13 04:33:00,
2013-08-12 22:42:00,51.0,40.0,-100.00,ENE,70,6.0,12.0,67,0.00,,,0.01,0.000000,,2013-08-13 04:42:00,
2013-08-12 22:53:00,51.0,40.0,-100.00,ENE,70,6.0,12.0,67,0.00,,,0.01,0.000000,,2013-08-13 04:53:00,
2013-08-12 23:21:00,47.0,39.0,-100.00,ENE,74,6.0,9.0,75,0.00,,,0.01,0.000000,,2013-08-13 05:21:00,
2013-08-12 23:32:00,47.0,39.0,-100.00,ENE,74,6.0,9.0,75,0.00,,,0.01,0.000000,,2013-08-13 05:32:00,
2013-08-12 23:42:00,47.0,39.0,-100.00,ENE,74,6.0,9.0,75,0.00,,,0.01,0.000000,,2013-08-13 05:42:00,
2013-08-12 23:52:00,47.0,39.0,-100.00,ENE,74,6.0,9.0,75,0.00,,,0.01,0.000000,,2013-08-13 05:52:00,